Time,TemperatureF,DewpointF,PressureIn,WindDirection,WindDirectionDegrees,WindSpeedMPH,WindSpeedGustMPH,Humidity,HourlyPrecipIn,Conditions,Clouds,dailyrainin,SolarRadiationWatts/m^2,SoftwareType,DateUTC
2013-04-14 00:00:00,60.3,54.1,29.84,SSE,151,0.0,0.0,80,0.00,,,0.00,0,Wunderground v.1.15,2013-04-14 05:00:00,
2013-04-14 00:05:00,60.3,54.1,29.85,SSE,151,0.0,0.0,80,0.00,,,0.00,0,Wunderground v.1.15,2013-04-14 05:05:00,
2013-04-14 00:11:00,60.2,54.0,29.84,SSE,151,0.0,0.0,80,0.00,,,0.00,0,Wunderground v.1.15,2013-04-14 05:11:00,
2013-04-14 00:17:00,60.1,54.2,29.84,SSE,151,0.0,0.0,81,0.00,,,0.00,0,Wunderground v.1.15,2013-04-14 05:17:00,
2013-04-14 00:22:00,60.1,54.2,29.84,SSE,151,0.0,0.0,81,0.00,,,0.00,0,Wunderground v.1.15,2013-04-14 05:22:00,
2013-04-14 00:27:00,60.1,54.2,29.83,SSE,151,0.0,1.0,81,0.00,,,0.00,0,Wunderground v.1.15,2013-04-14 05:27:00,
2013-04-14 00:33:00,60.0,54.2,29.83,SSE,151,0.0,0.0,81,0.00,,,0.00,0,Wunderground v.1.15,2013-04-14 05:33:00,
2013-04-14 00:38:00,60.1,54.2,29.83,SSE,151,0.0,0.0,81,0.00,,,0.00,0,Wunderground v.1.15,2013-04-14 05:38:00,
2013-04-14 00:43:00,60.2,54.7,29.84,SSE,151,0.0,0.0,82,0.00,,,0.00,0,Wunderground v.1.15,2013-04-14 05:43:00,
2013-04-14 00:48:00,60.4,54.9,29.87,SSE,163,0.0,3.0,82,0.00,,,0.00,0,Wunderground v.1.15,2013-04-14 05:48:00,
2013-04-14 00:53:00,60.3,55.4,29.90,SW,232,2.0,7.0,84,0.00,,,0.00,0,Wunderground v.1.15,2013-04-14 05:53:00,
2013-04-14 00:59:00,60.0,55.8,29.87,SW,233,1.0,7.0,86,0.00,,,0.01,0,Wunderground v.1.15,2013-04-14 05:59:00,
2013-04-14 01:04:00,59.5,55.9,29.86,SSE,167,0.0,1.0,88,0.11,,,0.02,0,Wunderground v.1.15,2013-04-14 06:04:00,
2013-04-14 01:10:00,59.0,56.1,29.88,SSE,167,0.0,1.0,90,0.08,,,0.03,0,Wunderground v.1.15,2013-04-14 06:10:00,
2013-04-14 01:16:00,58.7,56.4,29.88,SSE,147,0.0,6.0,92,0.55,,,0.06,0,Wunderground v.1.15,2013-04-14 06:16:00,
2013-04-14 01:21:00,58.5,56.2,29.85,ESE,102,1.0,1.0,92,0.42,,,0.12,0,Wunderground v.1.15,2013-04-14 06:21:00,
2013-04-14 01:26:00,58.3,56.0,29.85,South,173,1.0,3.0,92,0.09,,,0.12,0,Wunderground v.1.15,2013-04-14 06:26:00,
2013-04-14 09:43:00,57.3,56.5,29.78,SE,132,1.0,3.0,97,0.54,,,2.12,14,Wunderground v.1.15,2013-04-14 14:43:00,
2013-04-14 09:48:00,57.3,56.7,29.75,ESE,102,2.0,5.0,98,0.28,,,2.14,28,Wunderground v.1.15,2013-04-14 14:48:00,
2013-04-14 09:53:00,57.3,56.7,29.77,ESE,108,1.0,6.0,98,0.08,,,2.14,65,Wunderground v.1.15,2013-04-14 14:53:00,
2013-04-14 09:59:00,57.3,56.7,29.77,East,101,2.0,8.0,98,0.05,,,2.14,167,Wunderground v.1.15,2013-04-14 14:59:00,
2013-04-14 10:04:00,57.5,56.9,29.76,East,90,3.0,5.0,98,0.04,,,2.15,401,Wunderground v.1.15,2013-04-14 15:04:00,
2013-04-14 10:09:00,58.0,57.4,29.78,NE,46,3.0,6.0,98,0.04,,,2.15,332,Wunderground v.1.15,2013-04-14 15:09:00,
2013-04-14 10:15:00,58.4,57.8,29.79,East,96,2.0,10.0,98,0.04,,,2.15,172,Wunderground v.1.15,2013-04-14 15:15:00,
2013-04-14 10:20:00,58.6,58.0,29.78,NE,54,1.0,5.0,98,0.00,,,2.15,67,Wunderground v.1.15,2013-04-14 15:20:00,
2013-04-14 10:27:00,58.2,57.4,29.69,ENE,74,4.0,20.0,97,0.00,,,2.15,62,Wunderground v.1.15,2013-04-14 15:27:00,
2013-04-14 10:32:00,58.2,57.4,29.78,SSE,163,5.0,5.0,97,0.00,,,2.15,81,Wunderground v.1.15,2013-04-14 15:32:00,
2013-04-14 10:38:00,58.2,57.4,29.79,East,89,1.0,5.0,97,0.00,,,2.15,141,Wunderground v.1.15,2013-04-14 15:38:00,
2013-04-14 10:44:00,58.4,57.6,29.79,East,92,1.0,1.0,97,0.00,,,2.15,158,Wunderground v.1.15,2013-04-14 15:44:00,
2013-04-14 10:49:00,58.6,57.8,29.79,ESE,103,0.0,1.0,97,0.00,,,2.15,193,Wunderground v.1.15,2013-04-14 15:49:00,
2013-04-14 10:54:00,59.0,58.2,29.79,SE,127,0.0,8.0,97,0.00,,,2.15,123,Wunderground v.1.15,2013-04-14 15:54:00,
2013-04-14 11:00:00,59.0,58.2,29.78,ESE,107,1.0,1.0,97,0.00,,,2.15,127,Wunderground v.1.15,2013-04-14 16:00:00,
2013-04-14 11:05:00,59.0,58.2,29.78,East,95,1.0,2.0,97,0.00,,,2.15,269,Wunderground v.1.15,2013-04-14 16:05:00,
2013-04-14 11:11:00,59.3,58.4,29.77,SE,145,0.0,0.0,97,0.00,,,2.15,417,Wunderground v.1.15,2013-04-14 16:11:00,
2013-04-14 11:17:00,60.1,59.2,29.76,ESE,123,0.0,7.0,97,0.00,,,2.15,482,Wunderground v.1.15,2013-04-14 16:17:00,
2013-04-14 11:23:00,60.4,59.3,29.76,NE,51,1.0,1.0,96,0.00,,,2.15,420,Wunderground v.1.15,2013-04-14 16:23:00,
2013-04-14 11:28:00,60.7,59.3,29.76,East,96,1.0,1.0,95,0.00,,,2.15,499,Wunderground v.1.15,2013-04-14 16:28:00,
2013-04-14 11:33:00,61.3,59.6,29.77,SE,144,2.0,6.0,94,0.00,,,2.15,780,Wunderground v.1.15,2013-04-14 16:33:00,
2013-04-14 11:38:00,62.0,60.0,29.76,ENE,73,2.0,6.0,93,0.00,,,2.15,912,Wunderground v.1.15,2013-04-14 16:38:00,
2013-04-14 11:43:00,62.7,60.0,29.76,South,188,2.0,10.0,91,0.00,,,0.00,510,Wunderground v.1.15,2013-04-14 16:43:00,
2013-04-14 11:49:00,63.0,59.4,29.76,ESE,108,3.0,10.0,88,0.00,,,0.00,1086,Wunderground v.1.15,2013-04-14 16:49:00,
2013-04-14 11:54:00,63.1,60.1,29.77,East,98,2.0,7.0,90,0.00,,,0.00,1076,Wunderground v.1.15,2013-04-14 16:54:00,
2013-04-14 12:00:00,63.7,60.4,29.77,SE,139,1.0,1.0,89,0.00,,,0.00,960,Wunderground v.1.15,2013-04-14 17:00:00,
2013-04-14 12:05:00,64.1,60.2,29.77,ESE,113,2.0,9.0,87,0.00,,,0.00,1018,Wunderground v.1.15,2013-04-14 17:05:00,
2013-04-14 12:10:00,64.5,60.2,29.77,ESE,117,2.0,2.0,86,0.00,,,0.00,893,Wunderground v.1.15,2013-04-14 17:10:00,
2013-04-14 12:16:00,64.9,60.6,29.77,East,96,0.0,2.0,86,0.00,,,0.00,531,Wunderground v.1.15,2013-04-14 17:16:00,
2013-04-14 12:21:00,65.2,60.6,29.77,East,95,0.0,0.0,85,0.00,,,0.00,524,Wunderground v.1.15,2013-04-14 17:21:00,
2013-04-14 12:27:00,65.5,60.9,29.76,NE,52,1.0,2.0,85,0.00,,,0.00,784,Wunderground v.1.15,2013-04-14 17:27:00,
2013-04-14 12:33:00,66.1,61.1,29.76,East,81,1.0,2.0,84,0.00,,,0.00,780,Wunderground v.1.15,2013-04-14 17:33:00,
2013-04-14 12:39:00,66.4,61.4,29.76,ESE,117,2.0,7.0,84,0.00,,,0.00,617,Wunderground v.1.15,2013-04-14 17:39:00,
2013-04-14 12:44:00,66.7,61.0,29.76,East,93,2.0,7.0,82,0.00,,,0.00,819,Wunderground v.1.15,2013-04-14 17:44:00,
2013-04-14 12:50:00,67.2,61.2,29.75,ENE,77,1.0,9.0,81,0.00,,,0.00,1092,Wunderground v.1.15,2013-04-14 17:50:00,
2013-04-14 12:56:00,67.2,60.8,29.76,SSE,156,1.0,9.0,80,0.00,,,0.00,512,Wunderground v.1.15,2013-04-14 17:56:00,
2013-04-14 13:01:00,67.7,61.3,29.75,ESE,102,1.0,6.0,80,0.00,,,0.00,512,Wunderground v.1.15,2013-04-14 18:01:00,
2013-04-14 13:06:00,68.2,62.1,29.75,ESE,116,0.0,6.0,81,0.00,,,0.00,963,Wunderground v.1.15,2013-04-14 18:06:00,
2013-04-14 13:12:00,68.7,61.6,29.75,East,86,1.0,6.0,78,0.00,,,0.00,962,Wunderground v.1.15,2013-04-14 18:12:00,
2013-04-14 13:18:00,68.9,61.4,29.76,NNE,23,2.0,6.0,77,0.00,,,0.00,979,Wunderground v.1.15,2013-04-14 18:18:00,
2013-04-14 13:24:00,69.4,62.6,29.76,East,98,2.0,6.0,79,0.00,,,0.00,497,Wunderground v.1.15,2013-04-14 18:24:00,
2013-04-14 13:29:00,69.4,62.2,29.75,ESE,108,1.0,8.0,78,0.00,,,0.00,967,Wunderground v.1.15,2013-04-14 18:29:00,
2013-04-14 13:35:00,69.5,62.0,29.75,ESE,122,1.0,8.0,77,0.00,,,0.00,967,Wunderground v.1.15,2013-04-14 18:35:00,
2013-04-14 13:41:00,69.8,62.3,29.74,SSE,165,0.0,6.0,77,0.00,,,0.00,914,Wunderground v.1.15,2013-04-14 18:41:00,
2013-04-14 13:47:00,70.3,62.0,29.74,East,88,0.0,6.0,75,0.00,,,0.00,909,Wunderground v.1.15,2013-04-14 18:47:00,
2013-04-14 13:53:00,70.6,62.3,29.74,SE,144,0.0,6.0,75,0.00,,,0.00,721,Wunderground v.1.15,2013-04-14 18:53:00,
2013-04-14 13:58:00,70.4,61.3,29.75,SE,125,0.0,6.0,73,0.00,,,0.00,911,Wunderground v.1.15,2013-04-14 18:58:00,
2013-04-14 14:03:00,70.2,61.5,29.75,ESE,113,1.0,6.0,74,0.00,,,0.00,898,Wunderground v.1.15,2013-04-14 19:03:00,
2013-04-14 14:08:00,70.3,61.2,29.74,SE,134,0.0,6.0,73,0.00,,,0.00,891,Wunderground v.1.15,2013-04-14 19:08:00,
2013-04-14 14:14:00,70.8,62.5,29.74,SE,136,0.0,6.0,75,0.00,,,0.00,888,Wunderground v.1.15,2013-04-14 19:14:00,
2013-04-14 14:19:00,71.2,61.7,29.74,ESE,121,0.0,6.0,72,0.00,,,0.00,555,Wunderground v.1.15,2013-04-14 19:19:00,
2013-04-14 14:25:00,71.3,61.4,29.74,ENE,76,0.0,6.0,71,0.00,,,0.00,571,Wunderground v.1.15,2013-04-14 19:25:00,
2013-04-14 14:30:00,71.7,62.2,29.73,ENE,76,0.0,6.0,72,0.00,,,0.00,1049,Wunderground v.1.15,2013-04-14 19:30:00,
2013-04-14 14:35:00,72.1,62.2,29.73,NE,51,0.0,6.0,71,0.00,,,0.00,642,Wunderground v.1.15,2013-04-14 19:35:00,
2013-04-14 14:42:00,71.8,61.9,29.73,NE,47,1.0,6.0,71,0.00,,,0.00,424,Wunderground v.1.15,2013-04-14 19:42:00,
2013-04-14 14:47:00,71.6,62.1,29.73,NE,47,0.0,6.0,72,0.00,,,0.00,694,Wunderground v.1.15,2013-04-14 19:47:00,
2013-04-14 14:52:00,71.8,62.7,29.73,NE,47,0.0,6.0,73,0.00,,,0.00,624,Wunderground v.1.15,2013-04-14 19:52:00,
2013-04-14 14:58:00,72.0,62.1,29.73,NE,43,1.0,6.0,71,0.00,,,0.00,352,Wunderground v.1.15,2013-04-14 19:58:00,
2013-04-14 15:03:00,71.9,62.0,29.73,NE,43,1.0,6.0,71,0.00,,,0.00,309,Wunderground v.1.15,2013-04-14 20:03:00,
2013-04-14 15:08:00,71.9,62.0,29.73,NE,43,0.0,6.0,71,0.00,,,0.00,272,Wunderground v.1.15,2013-04-14 20:08:00,
2013-04-14 15:13:00,71.9,62.4,29.73,NE,43,0.0,6.0,72,0.00,,,0.00,364,Wunderground v.1.15,2013-04-14 20:13:00,
2013-04-14 15:19:00,72.0,62.1,29.72,NE,43,0.0,6.0,71,0.00,,,0.00,413,Wunderground v.1.15,2013-04-14 20:19:00,
2013-04-14 15:24:00,72.5,63.0,29.71,NE,43,0.0,6.0,72,0.00,,,0.00,937,Wunderground v.1.15,2013-04-14 20:24:00,
2013-04-14 15:29:00,73.0,63.0,29.71,NE,43,0.0,6.0,71,0.00,,,0.00,965,Wunderground v.1.15,2013-04-14 20:29:00,
2013-04-14 15:35:00,73.1,62.7,29.71,SE,131,1.0,6.0,70,0.00,,,0.00,946,Wunderground v.1.15,2013-04-14 20:35:00,
2013-04-14 15:40:00,73.1,63.1,29.71,SE,133,1.0,1.0,71,0.00,,,0.00,853,Wunderground v.1.15,2013-04-14 20:40:00,
2013-04-14 15:46:00,73.1,61.9,29.71,South,191,0.0,6.0,68,0.00,,,0.00,779,Wunderground v.1.15,2013-04-14 20:46:00,
2013-04-14 15:52:00,73.3,62.1,29.71,South,190,0.0,6.0,68,0.00,,,0.00,258,Wunderground v.1.15,2013-04-14 20:52:00,
2013-04-14 15:58:00,73.6,62.4,29.72,WSW,237,0.0,6.0,68,0.00,,,0.00,863,Wunderground v.1.15,2013-04-14 20:58:00,
2013-04-14 16:04:00,74.1,62.9,29.72,SSW,208,0.0,6.0,68,0.00,,,0.00,410,Wunderground v.1.15,2013-04-14 21:04:00,
2013-04-14 16:09:00,74.0,63.2,29.71,ESE,105,0.0,6.0,69,0.00,,,0.00,610,Wunderground v.1.15,2013-04-14 21:09:00,
2013-04-14 16:15:00,74.4,63.1,29.71,SE,138,0.0,6.0,68,0.00,,,0.00,803,Wunderground v.1.15,2013-04-14 21:15:00,
2013-04-14 16:21:00,74.5,62.8,29.71,South,169,0.0,6.0,67,0.00,,,0.00,768,Wunderground v.1.15,2013-04-14 21:21:00,
2013-04-14 16:27:00,74.8,63.5,29.71,South,175,0.0,6.0,68,0.00,,,0.00,751,Wunderground v.1.15,2013-04-14 21:27:00,
2013-04-14 16:32:00,74.7,63.0,29.71,South,186,0.0,6.0,67,0.00,,,0.00,731,Wunderground v.1.15,2013-04-14 21:32:00,
2013-04-14 16:37:00,74.7,63.4,29.70,SSW,205,0.0,6.0,68,0.00,,,0.00,517,Wunderground v.1.15,2013-04-14 21:37:00,
2013-04-14 16:47:00,74.5,63.2,29.71,SE,131,1.0,6.0,68,0.00,,,0.00,538,Wunderground v.1.15,2013-04-14 21:47:00,
2013-04-14 16:53:00,74.2,63.4,29.71,SE,126,0.0,6.0,69,0.00,,,0.00,608,Wunderground v.1.15,2013-04-14 21:53:00,
2013-04-14 17:05:00,73.6,62.8,29.71,SE,125,1.0,6.0,69,0.00,,,0.00,225,Wunderground v.1.15,2013-04-14 22:05:00,
2013-04-14 17:11:00,73.2,62.8,29.71,SSE,147,0.0,6.0,70,0.00,,,0.00,167,Wunderground v.1.15,2013-04-14 22:11:00,
2013-04-14 17:17:00,72.7,62.8,29.71,ESE,109,0.0,6.0,71,0.00,,,0.00,141,Wunderground v.1.15,2013-04-14 22:17:00,
2013-04-14 17:22:00,72.4,62.5,29.72,SE,144,0.0,6.0,71,0.00,,,0.00,144,Wunderground v.1.15,2013-04-14 22:22:00,
2013-04-14 17:28:00,72.1,62.2,29.72,SE,142,0.0,6.0,71,0.00,,,0.00,127,Wunderground v.1.15,2013-04-14 22:28:00,
2013-04-14 17:33:00,72.0,62.5,29.73,SE,142,0.0,6.0,72,0.00,,,0.00,111,Wunderground v.1.15,2013-04-14 22:33:00,
2013-04-14 17:38:00,72.0,62.9,29.72,SSE,152,0.0,6.0,73,0.00,,,0.00,160,Wunderground v.1.15,2013-04-14 22:38:00,
2013-04-14 17:44:00,71.9,63.2,29.72,East,89,0.0,6.0,74,0.00,,,0.00,109,Wunderground v.1.15,2013-04-14 22:44:00,
2013-04-14 17:49:00,71.7,62.6,29.72,East,91,0.0,6.0,73,0.00,,,0.00,153,Wunderground v.1.15,2013-04-14 22:49:00,
2013-04-14 17:55:00,71.7,62.6,29.72,ESE,114,0.0,6.0,73,0.00,,,0.00,197,Wunderground v.1.15,2013-04-14 22:55:00,
2013-04-14 18:00:00,71.7,61.8,29.72,SE,131,0.0,6.0,71,0.00,,,0.00,155,Wunderground v.1.15,2013-04-14 23:00:00,
2013-04-14 18:05:00,71.7,62.6,29.72,SE,137,0.0,6.0,73,0.00,,,0.00,116,Wunderground v.1.15,2013-04-14 23:05:00,
2013-04-14 18:11:00,71.5,62.0,29.72,SE,140,0.0,6.0,72,0.00,,,0.00,102,Wunderground v.1.15,2013-04-14 23:11:00,
2013-04-14 18:17:00,71.3,61.8,29.72,SE,137,0.0,6.0,72,0.00,,,0.00,107,Wunderground v.1.15,2013-04-14 23:17:00,
2013-04-14 18:23:00,71.2,62.5,29.72,SE,137,0.0,6.0,74,0.00,,,0.00,104,Wunderground v.1.15,2013-04-14 23:23:00,
2013-04-14 18:28:00,71.0,62.3,29.72,SE,137,0.0,6.0,74,0.00,,,0.00,84,Wunderground v.1.15,2013-04-14 23:28:00,
2013-04-14 18:34:00,70.9,63.0,29.72,SE,136,0.0,6.0,76,0.00,,,0.00,109,Wunderground v.1.15,2013-04-14 23:34:00,
2013-04-14 18:39:00,70.7,62.4,29.72,SE,136,0.0,6.0,75,0.00,,,0.00,53,Wunderground v.1.15,2013-04-14 23:39:00,
2013-04-14 18:45:00,70.5,62.6,29.72,SE,136,0.0,6.0,76,0.00,,,0.00,56,Wunderground v.1.15,2013-04-14 23:45:00,
2013-04-14 18:50:00,70.3,62.7,29.73,SE,136,0.0,6.0,77,0.00,,,0.00,46,Wunderground v.1.15,2013-04-14 23:50:00,
2013-04-14 18:56:00,70.1,62.6,29.73,SE,136,0.0,6.0,77,0.00,,,0.00,47,Wunderground v.1.15,2013-04-14 23:56:00,
2013-04-14 19:01:00,69.9,62.4,29.73,SE,136,0.0,6.0,77,0.00,,,0.00,26,Wunderground v.1.15,2013-04-15 00:01:00,
2013-04-14 19:07:00,69.7,62.5,29.74,SE,136,0.0,6.0,78,0.00,,,0.00,16,Wunderground v.1.15,2013-04-15 00:07:00,
2013-04-14 19:12:00,69.5,62.7,29.73,SE,136,0.0,6.0,79,0.00,,,0.00,14,Wunderground v.1.15,2013-04-15 00:12:00,
2013-04-14 19:17:00,69.4,62.6,29.73,SE,136,0.0,6.0,79,0.00,,,0.00,11,Wunderground v.1.15,2013-04-15 00:17:00,
2013-04-14 19:23:00,69.2,62.8,29.73,SE,136,0.0,6.0,80,0.00,,,0.00,9,Wunderground v.1.15,2013-04-15 00:23:00,
2013-04-14 19:28:00,69.0,62.9,29.73,SE,136,0.0,6.0,81,0.00,,,0.00,5,Wunderground v.1.15,2013-04-15 00:28:00,
2013-04-14 19:34:00,68.7,62.6,29.73,SE,136,0.0,6.0,81,0.00,,,0.00,0,Wunderground v.1.15,2013-04-15 00:34:00,
2013-04-14 19:39:00,68.3,62.6,29.73,SE,136,0.0,6.0,82,0.00,,,0.00,0,Wunderground v.1.15,2013-04-15 00:39:00,
2013-04-14 19:44:00,68.0,62.3,29.74,SE,136,0.0,6.0,82,0.00,,,0.00,0,Wunderground v.1.15,2013-04-15 00:44:00,
2013-04-14 19:50:00,67.7,62.3,29.74,SE,136,0.0,6.0,83,0.00,,,0.00,0,Wunderground v.1.15,2013-04-15 00:50:00,
2013-04-14 19:55:00,67.4,62.4,29.74,SE,136,0.0,6.0,84,0.00,,,0.00,0,Wunderground v.1.15,2013-04-15 00:55:00,
2013-04-14 20:02:00,66.8,61.8,29.74,SE,136,0.0,6.0,84,0.00,,,0.00,0,Wunderground v.1.15,2013-04-15 01:02:00,
2013-04-14 20:07:00,66.4,61.8,29.74,SE,136,0.0,6.0,85,0.00,,,0.00,0,Wunderground v.1.15,2013-04-15 01:07:00,
2013-04-14 20:12:00,66.0,61.7,29.74,SE,136,0.0,6.0,86,0.00,,,0.00,0,Wunderground v.1.15,2013-04-15 01:12:00,
2013-04-14 20:17:00,65.6,61.6,29.74,SE,136,0.0,6.0,87,0.00,,,0.00,0,Wunderground v.1.15,2013-04-15 01:17:00,
2013-04-14 20:23:00,65.3,61.7,29.74,SE,136,0.0,6.0,88,0.00,,,0.00,0,Wunderground v.1.15,2013-04-15 01:23:00,
2013-04-14 20:29:00,64.9,61.3,29.74,SE,136,0.0,6.0,88,0.00,,,0.00,0,Wunderground v.1.15,2013-04-15 01:29:00,
2013-04-14 20:35:00,64.7,61.4,29.75,SE,136,0.0,6.0,89,0.00,,,0.00,0,Wunderground v.1.15,2013-04-15 01:35:00,
2013-04-14 20:40:00,64.5,61.2,29.75,SE,136,0.0,6.0,89,0.00,,,0.00,0,Wunderground v.1.15,2013-04-15 01:40:00,
2013-04-14 20:45:00,64.4,61.7,29.75,SE,136,0.0,6.0,91,0.00,,,0.00,0,Wunderground v.1.15,2013-04-15 01:45:00,
2013-04-14 20:50:00,64.3,61.3,29.75,SE,135,0.0,6.0,90,0.00,,,0.00,0,Wunderground v.1.15,2013-04-15 01:50:00,
2013-04-14 20:56:00,64.2,61.5,29.76,SE,135,0.0,6.0,91,0.00,,,0.00,0,Wunderground v.1.15,2013-04-15 01:56:00,
2013-04-14 21:01:00,64.0,61.3,29.76,SE,135,0.0,6.0,91,0.00,,,0.00,0,Wunderground v.1.15,2013-04-15 02:01:00,
2013-04-14 21:06:00,63.9,61.2,29.76,SE,135,0.0,6.0,91,0.00,,,0.00,0,Wunderground v.1.15,2013-04-15 02:06:00,
2013-04-14 21:12:00,63.8,61.1,29.76,SE,135,0.0,6.0,91,0.00,,,0.00,0,Wunderground v.1.15,2013-04-15 02:12:00,
2013-04-14 21:17:00,63.8,61.1,29.76,SE,135,0.0,6.0,91,0.00,,,0.00,0,Wunderground v.1.15,2013-04-15 02:17:00,
2013-04-14 21:22:00,63.7,61.0,29.76,SE,135,0.0,6.0,91,0.00,,,0.00,0,Wunderground v.1.15,2013-04-15 02:22:00,
2013-04-14 21:27:00,63.6,60.9,29.76,SE,135,0.0,6.0,91,0.00,,,0.00,0,Wunderground v.1.15,2013-04-15 02:27:00,
2013-04-14 21:33:00,63.6,61.2,29.77,SE,135,0.0,6.0,92,0.00,,,0.00,0,Wunderground v.1.15,2013-04-15 02:33:00,
2013-04-14 21:38:00,63.5,61.1,29.77,SE,135,0.0,6.0,92,0.00,,,0.00,0,Wunderground v.1.15,2013-04-15 02:38:00,
2013-04-14 21:43:00,63.4,61.3,29.77,SE,135,0.0,6.0,93,0.00,,,0.00,0,Wunderground v.1.15,2013-04-15 02:43:00,
2013-04-14 21:49:00,63.2,61.1,29.77,SE,135,0.0,6.0,93,0.00,,,0.00,0,Wunderground v.1.15,2013-04-15 02:49:00,
2013-04-14 21:54:00,63.1,61.0,29.77,SE,137,0.0,6.0,93,0.00,,,0.00,0,Wunderground v.1.15,2013-04-15 02:54:00,
2013-04-14 22:00:00,63.0,60.9,29.78,SE,140,0.0,6.0,93,0.00,,,0.00,0,Wunderground v.1.15,2013-04-15 03:00:00,
2013-04-14 22:05:00,62.9,61.1,29.78,SSE,164,0.0,6.0,94,0.00,,,0.00,0,Wunderground v.1.15,2013-04-15 03:05:00,
2013-04-14 22:10:00,62.8,61.0,29.78,SSE,164,0.0,6.0,94,0.00,,,0.00,0,Wunderground v.1.15,2013-04-15 03:10:00,
2013-04-14 22:16:00,62.7,60.9,29.78,SSE,164,0.0,6.0,94,0.00,,,0.00,0,Wunderground v.1.15,2013-04-15 03:16:00,
2013-04-14 22:21:00,62.6,60.8,29.78,SSE,164,0.0,6.0,94,0.00,,,0.00,0,Wunderground v.1.15,2013-04-15 03:21:00,
2013-04-14 22:26:00,62.5,60.7,29.79,SSE,164,0.0,6.0,94,0.00,,,0.00,0,Wunderground v.1.15,2013-04-15 03:26:00,
2013-04-14 22:32:00,62.3,60.8,29.78,SSE,164,0.0,6.0,95,0.00,,,0.00,0,Wunderground v.1.15,2013-04-15 03:32:00,
2013-04-14 22:38:00,62.2,60.8,29.79,SSE,164,0.0,6.0,95,0.00,,,0.00,0,Wunderground v.1.15,2013-04-15 03:38:00,
2013-04-14 22:44:00,62.0,60.6,29.79,SSE,164,0.0,6.0,95,0.00,,,0.00,0,Wunderground v.1.15,2013-04-15 03:44:00,
2013-04-14 22:49:00,61.8,60.4,29.79,SSE,164,0.0,6.0,95,0.00,,,0.00,0,Wunderground v.1.15,2013-04-15 03:49:00,
2013-04-14 22:54:00,61.7,60.3,29.79,SSE,162,0.0,6.0,95,0.00,,,0.00,0,Wunderground v.1.15,2013-04-15 03:54:00,
2013-04-14 22:59:00,61.6,60.2,29.79,SSE,162,0.0,6.0,95,0.00,,,0.00,0,Wunderground v.1.15,2013-04-15 03:59:00,
2013-04-14 23:00:00,61.5,60.1,29.79,SSE,162,0.0,6.0,95,0.00,,,0.00,0,Wunderground v.1.15,2013-04-15 04:00:00,
2013-04-14 23:02:00,61.5,60.1,29.79,SSE,162,0.0,6.0,95,0.00,,,0.00,0,Wunderground v.1.15,2013-04-15 04:02:00,
2013-04-14 23:03:00,61.4,60.0,29.79,SSE,162,0.0,6.0,95,0.00,,,0.00,0,Wunderground v.1.15,2013-04-15 04:03:00,
2013-04-14 23:09:00,61.4,60.2,29.79,SSE,162,0.0,6.0,96,0.00,,,0.00,0,Wunderground v.1.15,2013-04-15 04:09:00,
2013-04-14 23:12:00,61.3,60.2,29.79,SSE,162,0.0,6.0,96,0.00,,,0.00,0,Wunderground v.1.15,2013-04-15 04:12:00,
2013-04-14 23:18:00,61.2,60.1,29.79,SSE,162,0.0,6.0,96,0.00,,,0.00,0,Wunderground v.1.15,2013-04-15 04:18:00,
2013-04-14 23:23:00,61.1,60.0,29.79,SSE,162,0.0,6.0,96,0.00,,,0.00,0,Wunderground v.1.15,2013-04-15 04:23:00,
2013-04-14 23:28:00,61.1,60.0,29.79,SSE,162,0.0,6.0,96,0.00,,,0.00,0,Wunderground v.1.15,2013-04-15 04:28:00,
2013-04-14 23:34:00,61.0,59.9,29.79,SSE,162,0.0,6.0,96,0.00,,,0.00,0,Wunderground v.1.15,2013-04-15 04:34:00,
2013-04-14 23:39:00,60.9,59.8,29.79,SSE,162,0.0,6.0,96,0.00,,,0.00,0,Wunderground v.1.15,2013-04-15 04:39:00,
2013-04-14 23:45:00,60.8,59.7,29.79,SSE,162,0.0,6.0,96,0.00,,,0.00,0,Wunderground v.1.15,2013-04-15 04:45:00,
2013-04-14 23:51:00,60.8,59.7,29.79,SSE,161,0.0,6.0,96,0.00,,,0.00,0,Wunderground v.1.15,2013-04-15 04:51:00,
2013-04-14 23:57:00,60.7,59.8,29.79,SSE,161,0.0,6.0,97,0.00,,,0.00,0,Wunderground v.1.15,2013-04-15 04:57:00,